Time;durP1;ratioP1;P1;durP2;ratioP2;P2;SDS_P1;SDS_P2;PMS_P1;PMS_P2;Temp;Humidity;BMP_temperature;BMP_pressure;BME280_temperature;BME280_humidity;BME280_pressure;Samples;Min_cycle;Max_cycle;Signal;HPM_P1;HPM_P2
2022/09/05 00:00:54;;;;;;;0.10;0.10;;;;;;;19.91;67.42;100062.13;7160235;19;2004669;-61
2022/09/05 00:03:54;;;;;;;0.00;0.00;;;;;;;19.91;66.74;100088.63;7362489;19;20026;-61
2022/09/05 00:06:23;;;;;;;0.00;0.00;;;;;;;19.88;68.81;100042.97;7260207;19;2004423;-61
2022/09/05 00:09:24;;;;;;;0.10;0.10;;;;;;;19.90;67.42;100060.44;7363511;19;20007;-62
2022/09/05 00:11:59;;;;;;;0.00;0.00;;;;;;;19.88;68.19;100056.22;7258797;19;2004198;-61
2022/09/05 00:14:43;;;;;;;0.00;0.00;;;;;;;19.89;68.46;100019.00;7363038;19;20013;-61
2022/09/05 00:17:24;;;;;;;0.00;0.00;;;;;;;19.85;69.08;100025.50;7362779;19;20032;-61
2022/09/05 00:19:49;;;;;;;0.00;0.00;;;;;;;19.81;70.41;100017.88;7361484;19;20007;-62
2022/09/05 00:22:44;;;;;;;0.00;0.00;;;;;;;19.82;68.96;100015.13;7364064;19;20013;-62
2022/09/05 00:25:49;;;;;;;0.00;0.00;;;;;;;19.76;68.99;100028.78;7258963;19;2004250;-63
2022/09/05 00:28:27;;;;;;;0.00;0.00;;;;;;;19.68;70.52;100018.75;7258386;19;2004297;-63
2022/09/05 00:31:23;;;;;;;0.00;0.00;;;;;;;19.60;71.05;100012.31;7360650;19;20010;-63
2022/09/05 00:34:07;;;;;;;0.00;0.00;;;;;;;19.33;71.78;100002.69;7260055;19;2004310;-63
2022/09/05 00:36:43;;;;;;;0.00;0.00;;;;;;;19.48;71.42;100023.75;7359824;19;20017;-63
2022/09/05 00:39:20;;;;;;;0.00;0.00;;;;;;;19.41;71.55;100040.06;7359860;19;20017;-63
2022/09/05 00:41:49;;;;;;;0.00;0.00;;;;;;;19.31;73.41;100036.38;7360401;19;20014;-62
2022/09/05 00:44:18;;;;;;;0.00;0.00;;;;;;;19.23;75.01;100054.56;7361847;19;20532;-62
2022/09/05 00:47:05;;;;;;;0.00;0.00;;;;;;;19.18;73.15;100046.09;7360105;19;20566;-63
2022/09/05 00:49:46;;;;;;;0.00;0.00;;;;;;;19.11;74.16;100056.28;7360845;19;20014;-63
2022/09/05 00:52:33;;;;;;;0.00;0.00;;;;;;;19.07;72.84;100059.22;7362725;19;20019;-63
2022/09/05 00:55:01;;;;;;;0.00;0.00;;;;;;;19.01;75.45;100059.63;7361139;19;20515;-63
2022/09/05 00:57:34;;;;;;;0.00;0.00;;;;;;;18.96;75.10;100067.03;7359451;19;20027;-63
2022/09/05 01:00:24;;;;;;;0.00;0.00;;;;;;;18.81;74.78;100032.75;7362149;19;20022;-63
2022/09/05 01:03:08;;;;;;;0.00;0.00;;;;;;;18.87;74.28;100050.00;7361712;19;20474;-63
2022/09/05 01:06:05;;;;;;;0.00;0.00;;;;;;;18.83;74.14;100051.16;7361190;19;20565;-63
2022/09/05 01:08:49;;;;;;;0.00;0.00;;;;;;;18.80;73.69;100057.47;7257845;19;2004506;-63
2022/09/05 01:11:34;;;;;;;0.00;0.00;;;;;;;18.72;76.44;100065.09;7361537;19;20340;-63
2022/09/05 01:14:37;;;;;;;0.00;0.00;;;;;;;18.73;73.80;100066.78;7359344;19;20032;-63
2022/09/05 01:17:25;;;;;;;0.00;0.00;;;;;;;18.69;74.56;100065.28;7260330;19;2004476;-63
2022/09/05 01:20:18;;;;;;;0.00;0.00;;;;;;;18.67;74.18;100052.13;7359202;19;20077;-63
2022/09/05 01:23:22;;;;;;;0.10;0.10;;;;;;;18.63;74.46;100053.28;7259318;19;2004483;-63
2022/09/05 01:26:10;;;;;;;0.00;0.00;;;;;;;18.61;75.07;100055.19;7258377;19;2004151;-62
2022/09/05 01:28:43;;;;;;;0.00;0.00;;;;;;;18.59;75.54;100058.88;7358790;19;21000;-63
2022/09/05 01:31:43;;;;;;;0.00;0.00;;;;;;;18.58;74.97;100058.03;7358269;19;20018;-63
2022/09/05 01:34:25;;;;;;;0.00;0.00;;;;;;;18.54;75.44;100045.97;7257388;19;2004159;-63
2022/09/05 01:37:24;;;;;;;0.00;0.00;;;;;;;18.55;74.22;100052.09;7359790;19;20339;-63
2022/09/05 01:40:27;;;;;;;0.00;0.00;;;;;;;18.55;73.83;100047.69;7265573;19;2004338;-63
2022/09/05 01:43:34;;;;;;;0.00;0.00;;;;;;;18.49;73.53;100047.22;7268393;19;2004151;-63
2022/09/05 01:46:28;;;;;;;0.00;0.00;;;;;;;18.50;73.67;100059.47;7265597;19;2004988;-63
2022/09/05 01:49:23;;;;;;;0.00;0.00;;;;;;;18.47;74.21;100070.28;7266361;19;2004643;-63
2022/09/05 01:52:04;;;;;;;0.00;0.00;;;;;;;18.44;73.95;100088.97;7266039;19;2004628;-62
2022/09/05 01:54:41;;;;;;;0.00;0.00;;;;;;;18.41;74.18;100082.94;7368032;19;20345;-63
2022/09/05 01:57:14;;;;;;;0.00;0.00;;;;;;;18.37;73.12;100091.16;7367379;19;20018;-63
2022/09/05 01:59:51;;;;;;;0.00;0.00;;;;;;;18.32;74.18;100099.41;7356543;19;20011;-63
2022/09/05 02:02:40;;;;;;;0.00;0.00;;;;;;;18.31;74.51;100110.91;7368702;19;20017;-62
2022/09/05 02:05:24;;;;;;;0.10;0.10;;;;;;;18.27;73.57;100106.78;7365737;19;20045;-62
2022/09/05 02:08:08;;;;;;;0.00;0.00;;;;;;;18.24;73.85;100117.53;7367889;19;20003;-62
2022/09/05 02:10:50;;;;;;;0.00;0.00;;;;;;;18.10;74.62;100105.22;7367559;19;20020;-62
2022/09/05 02:13:43;;;;;;;0.00;0.00;;;;;;;18.15;73.00;100131.34;7367934;19;20014;-61
2022/09/05 02:16:23;;;;;;;0.00;0.00;;;;;;;18.12;73.12;100144.75;7265187;19;2004250;-63
2022/09/05 02:19:22;;;;;;;0.00;0.00;;;;;;;18.07;73.31;100150.31;7369262;19;20013;-62
2022/09/05 02:22:02;;;;;;;0.00;0.00;;;;;;;18.01;75.92;100152.50;7263184;19;2004510;-63
2022/09/05 02:24:35;;;;;;;0.00;0.00;;;;;;;17.93;74.89;100181.16;7365594;19;20038;-62
2022/09/05 02:27:30;;;;;;;0.00;0.00;;;;;;;17.91;74.22;100189.19;7368077;19;20002;-62
2022/09/05 02:30:16;;;;;;;0.00;0.00;;;;;;;17.85;75.86;100203.63;7264567;19;2004448;-62
2022/09/05 02:33:19;;;;;;;0.00;0.00;;;;;;;17.77;75.94;100219.09;7366778;19;20010;-63
2022/09/05 02:35:54;;;;;;;0.00;0.00;;;;;;;17.74;77.85;100245.69;7264418;19;2004390;-62
2022/09/05 02:38:31;;;;;;;0.00;0.00;;;;;;;17.73;77.20;100233.41;7366925;19;20003;-62
2022/09/05 02:41:02;;;;;;;0.03;0.03;;;;;;;17.66;77.36;100237.34;7367046;19;21041;-62
2022/09/05 02:43:56;;;;;;;0.00;0.00;;;;;;;17.61;74.17;100249.97;7362648;19;20020;-63
2022/09/05 02:46:46;;;;;;;0.03;0.03;;;;;;;17.57;73.51;100243.16;7262511;19;2004570;-62
2022/09/05 02:49:26;;;;;;;0.00;0.00;;;;;;;17.41;72.34;100227.38;7259910;19;2004322;-62
2022/09/05 02:52:02;;;;;;;0.00;0.00;;;;;;;17.47;71.74;100242.00;7364816;19;20014;-63
2022/09/05 02:54:32;;;;;;;0.07;0.07;;;;;;;17.38;71.87;100244.22;7365797;19;20011;-62
2022/09/05 02:57:07;;;;;;;0.00;0.00;;;;;;;17.30;73.75;100235.91;7366852;19;20885;-62
2022/09/05 02:59:38;;;;;;;0.00;0.00;;;;;;;17.27;72.60;100243.16;7362982;19;20467;-62
2022/09/05 03:02:16;;;;;;;0.00;0.00;;;;;;;17.21;74.09;100236.44;7366565;19;20010;-62
2022/09/05 03:04:44;;;;;;;0.00;0.00;;;;;;;17.14;75.19;100237.75;7358630;19;20018;-63
2022/09/05 03:07:57;;;;;;;0.00;0.00;;;;;;;17.08;73.72;100240.72;7363969;19;20025;-63
2022/09/05 03:10:50;;;;;;;0.00;0.00;;;;;;;17.04;75.27;100239.22;7261927;19;2004350;-63
2022/09/05 03:13:54;;;;;;;0.00;0.00;;;;;;;16.97;74.91;100238.69;7263792;19;2004327;-63
2022/09/05 03:16:38;;;;;;;0.00;0.00;;;;;;;16.92;73.51;100237.25;7258527;19;2004235;-63
2022/09/05 03:19:31;;;;;;;0.00;0.00;;;;;;;16.88;72.14;100243.63;7358534;19;20027;-62
2022/09/05 03:22:02;;;;;;;0.00;0.00;;;;;;;16.81;74.88;100254.53;7263327;19;2004569;-62
2022/09/05 03:25:08;;;;;;;0.00;0.00;;;;;;;16.76;72.51;100250.44;7363740;19;20509;-62
2022/09/05 03:28:02;;;;;;;0.00;0.00;;;;;;;16.76;72.52;100258.34;7265888;19;2005869;-62
2022/09/05 03:31:05;;;;;;;0.00;0.00;;;;;;;16.74;73.11;100258.44;7262893;19;2004934;-62
2022/09/05 03:33:55;;;;;;;0.00;0.00;;;;;;;16.69;71.30;100249.06;7263190;19;2004576;-62
2022/09/05 03:37:02;;;;;;;0.00;0.00;;;;;;;16.64;71.74;100251.94;7367362;19;20010;-62
2022/09/05 03:40:05;;;;;;;0.00;0.00;;;;;;;16.61;73.80;100257.38;7264195;19;2004292;-62
2022/09/05 03:43:11;;;;;;;0.00;0.00;;;;;;;16.56;72.66;100249.72;7264765;19;2004540;-63
2022/09/05 03:45:50;;;;;;;0.00;0.00;;;;;;;16.52;73.87;100257.88;7260722;19;2004169;-62
2022/09/05 03:48:37;;;;;;;0.00;0.00;;;;;;;16.48;74.86;100261.63;7365370;19;20006;-63
2022/09/05 03:51:40;;;;;;;0.00;0.00;;;;;;;16.45;72.30;100274.97;7364860;19;20015;-63
2022/09/05 03:54:45;;;;;;;0.05;0.05;;;;;;;16.40;72.19;100277.00;7261665;19;2004525;-62
2022/09/05 03:57:30;;;;;;;0.00;0.00;;;;;;;16.35;71.76;100271.97;7263624;19;2004444;-63
2022/09/05 04:00:05;;;;;;;0.00;0.00;;;;;;;16.29;73.02;100275.78;7363885;19;20010;-63
2022/09/05 04:02:34;;;;;;;0.00;0.00;;;;;;;16.25;75.81;100287.41;7364206;19;20010;-63
2022/09/05 04:05:23;;;;;;;0.00;0.00;;;;;;;16.24;74.00;100295.41;7363057;19;20073;-62
2022/09/05 04:07:58;;;;;;;0.00;0.00;;;;;;;16.10;74.38;100282.94;7365848;19;20458;-62
2022/09/05 04:11:11;;;;;;;0.00;0.00;;;;;;;16.18;75.11;100301.84;7363455;19;20006;-62
2022/09/05 04:13:53;;;;;;;0.00;0.00;;;;;;;16.10;77.51;100298.75;7259397;19;2004472;-62
2022/09/05 04:16:31;;;;;;;0.00;0.00;;;;;;;16.09;77.15;100308.44;7369126;19;20032;-62
2022/09/05 04:19:18;;;;;;;0.00;0.00;;;;;;;16.11;76.76;100324.16;7364975;19;20013;-62
2022/09/05 04:21:56;;;;;;;0.00;0.00;;;;;;;15.99;78.25;100306.34;7365242;19;20015;-61
2022/09/05 04:24:32;;;;;;;;;;;;;;;16.09;75.84;100333.94;7365111;19;20114;-63
2022/09/05 04:27:23;;;;;;;0.00;0.00;;;;;;;16.06;77.08;100332.28;7365451;19;20403;-62
2022/09/05 04:30:21;;;;;;;0.00;0.00;;;;;;;16.04;77.98;100335.94;7262560;19;2004501;-61
2022/09/05 04:32:58;;;;;;;;;;;;;;;16.00;75.45;100339.66;7263313;19;2004484;-63
2022/09/05 04:35:51;;;;;;;0.00;0.00;;;;;;;15.96;73.47;100340.75;7364021;19;19974;-63
2022/09/05 04:38:34;;;;;;;0.00;0.00;;;;;;;15.89;72.86;100344.63;7261900;19;2004504;-62
2022/09/05 04:41:13;;;;;;;0.00;0.00;;;;;;;15.82;72.68;100342.31;7363674;19;20061;-62
2022/09/05 04:43:44;;;;;;;0.00;0.00;;;;;;;15.78;75.22;100346.00;7365216;19;20026;-62
2022/09/05 04:46:41;;;;;;;0.00;0.00;;;;;;;15.75;73.45;100340.88;7363341;19;20014;-62
2022/09/05 04:49:19;;;;;;;0.00;0.00;;;;;;;15.73;72.55;100347.19;7262086;19;2004544;-62
2022/09/05 04:52:12;;;;;;;0.00;0.00;;;;;;;15.71;72.81;100347.25;7364945;19;20086;-62
2022/09/05 04:54:45;;;;;;;0.00;0.00;;;;;;;15.67;72.33;100347.50;7263691;19;2004388;-62
2022/09/05 04:57:29;;;;;;;0.00;0.00;;;;;;;15.64;71.83;100348.47;7363061;19;20007;-62
2022/09/05 05:00:07;;;;;;;0.00;0.00;;;;;;;15.58;72.16;100333.81;7361605;19;20079;-61
2022/09/05 05:02:37;;;;;;;0.00;0.00;;;;;;;15.58;71.71;100344.34;7363229;19;20100;-62
2022/09/05 05:05:43;;;;;;;0.00;0.00;;;;;;;15.60;71.82;100341.63;7361696;19;20086;-63
2022/09/05 05:08:14;;;;;;;0.00;0.00;;;;;;;15.53;72.88;100335.81;7262545;19;2004123;-63
2022/09/05 05:10:50;;;;;;;0.00;0.00;;;;;;;15.56;73.13;100347.94;7360108;19;20019;-63
2022/09/05 05:13:40;;;;;;;0.00;0.00;;;;;;;15.55;72.11;100346.25;7366700;19;20014;-62
2022/09/05 05:16:27;;;;;;;0.00;0.00;;;;;;;15.44;71.43;100331.00;7369895;19;20040;-62
2022/09/05 05:19:04;;;;;;;0.00;0.00;;;;;;;15.50;71.57;100351.75;7368411;19;21103;-63
2022/09/05 05:21:30;;;;;;;;;;;;;;;15.50;71.42;100358.78;7370835;19;20014;-62
2022/09/05 05:24:10;;;;;;;0.00;0.00;;;;;;;15.36;72.64;100353.31;7369709;19;19919;-62
2022/09/05 05:27:14;;;;;;;0.00;0.00;;;;;;;15.44;74.40;100370.47;7371171;19;20726;-61
2022/09/05 05:29:50;;;;;;;0.00;0.00;;;;;;;15.43;75.09;100387.19;7267062;19;2004553;-62
2022/09/05 05:32:26;;;;;;;0.00;0.00;;;;;;;15.40;75.57;100386.47;7369912;19;20011;-62
2022/09/05 05:35:01;;;;;;;0.00;0.00;;;;;;;15.38;76.32;100389.19;7368047;19;20010;-62
2022/09/05 05:37:35;;;;;;;0.00;0.00;;;;;;;15.30;76.45;100383.41;7370262;19;20014;-62
2022/09/05 05:40:09;;;;;;;0.00;0.00;;;;;;;15.37;77.65;100397.16;7368828;19;20010;-61
2022/09/05 05:42:38;;;;;;;0.00;0.00;;;;;;;15.34;78.32;100399.91;7369439;19;20031;-62
2022/09/05 05:45:16;;;;;;;0.00;0.00;;;;;;;15.34;77.61;100399.91;7367594;19;20023;-62
2022/09/05 05:47:42;;;;;;;;;;;;;;;15.32;74.91;100395.59;7369237;19;20014;-62
2022/09/05 05:50:27;;;;;;;0.00;0.00;;;;;;;15.31;76.84;100399.16;7369539;19;20395;-62
2022/09/05 05:53:38;;;;;;;0.00;0.00;;;;;;;15.24;76.44;100395.09;7369392;19;20011;-63
2022/09/05 05:56:18;;;;;;;0.00;0.00;;;;;;;15.23;76.30;100401.28;7266243;19;2004546;-62
2022/09/05 05:59:08;;;;;;;0.00;0.00;;;;;;;15.22;75.21;100401.34;7357744;19;20015;-61
2022/09/05 06:01:52;;;;;;;0.00;0.00;;;;;;;15.21;74.81;100403.13;7363669;19;20032;-63
2022/09/05 06:04:54;;;;;;;0.00;0.00;;;;;;;15.18;74.70;100403.28;7367384;19;20010;-62
2022/09/05 06:07:44;;;;;;;0.00;0.00;;;;;;;15.17;76.08;100411.25;7262220;19;2004416;-62
2022/09/05 06:10:31;;;;;;;0.00;0.00;;;;;;;15.14;77.27;100422.75;7364751;19;20013;-62
2022/09/05 06:13:34;;;;;;;0.00;0.00;;;;;;;15.15;75.99;100424.44;7369426;19;20774;-62
2022/09/05 06:16:19;;;;;;;0.00;0.00;;;;;;;15.13;77.77;100431.56;7265319;19;2004391;-61
2022/09/05 06:18:48;;;;;;;0.00;0.00;;;;;;;15.13;77.66;100435.97;7364049;19;20459;-63
2022/09/05 06:21:44;;;;;;;0.00;0.00;;;;;;;15.14;76.50;100430.63;7367853;19;20014;-61
2022/09/05 06:24:43;;;;;;;0.00;0.00;;;;;;;15.15;74.87;100423.59;7264922;19;2004619;-62
2022/09/05 06:27:30;;;;;;;0.00;0.00;;;;;;;15.16;76.23;100431.44;7264920;19;2004670;-63
2022/09/05 06:29:56;;;;;;;0.03;0.03;;;;;;;15.13;75.88;100436.81;7360719;19;20020;-62
2022/09/05 06:32:40;;;;;;;0.00;0.00;;;;;;;15.14;75.54;100449.03;7363642;19;20744;-61
2022/09/05 06:35:08;;;;;;;0.00;0.00;;;;;;;15.18;75.31;100455.88;7360207;19;20013;-62
2022/09/05 06:38:04;;;;;;;0.00;0.00;;;;;;;15.21;75.14;100458.38;7355576;19;20727;-62
2022/09/05 06:40:33;;;;;;;0.00;0.00;;;;;;;15.22;75.12;100465.34;7259745;19;2004558;-62
2022/09/05 06:43:18;;;;;;;0.00;0.00;;;;;;;15.30;74.45;100465.81;7364967;19;20481;-62
2022/09/05 06:46:10;;;;;;;0.00;0.00;;;;;;;15.36;75.33;100474.34;7365772;19;20082;-63
2022/09/05 06:48:35;;;;;;;0.00;0.00;;;;;;;15.40;75.62;100487.31;7263089;19;2004545;-62
2022/09/05 06:51:24;;;;;;;0.00;0.00;;;;;;;15.51;74.72;100492.06;7365743;19;20037;-61
2022/09/05 06:54:08;;;;;;;0.00;0.00;;;;;;;15.56;75.79;100492.72;7261943;19;2004524;-62
2022/09/05 06:56:46;;;;;;;0.00;0.00;;;;;;;15.62;74.16;100502.97;7366230;19;20070;-62
2022/09/05 06:59:36;;;;;;;0.00;0.00;;;;;;;15.71;74.62;100507.84;7365669;19;20010;-63
2022/09/05 07:02:18;;;;;;;0.00;0.00;;;;;;;15.75;73.93;100504.13;7364681;19;20018;-63
2022/09/05 07:05:13;;;;;;;0.00;0.00;;;;;;;15.80;73.56;100496.84;7360644;19;20073;-62
2022/09/05 07:07:53;;;;;;;0.00;0.00;;;;;;;15.91;73.58;100492.84;7264315;19;2004723;-61
2022/09/05 07:10:33;;;;;;;0.00;0.00;;;;;;;15.94;73.08;100492.72;7367898;19;20593;-62
2022/09/05 07:13:08;;;;;;;0.00;0.00;;;;;;;16.04;73.38;100488.72;7363972;19;20014;-62
2022/09/05 07:15:49;;;;;;;0.00;0.00;;;;;;;16.11;72.28;100498.00;7365464;19;20019;-62
2022/09/05 07:18:25;;;;;;;0.00;0.00;;;;;;;16.16;72.70;100506.53;7367336;19;20042;-62
2022/09/05 07:21:06;;;;;;;0.00;0.00;;;;;;;16.24;72.37;100503.53;7366018;19;20348;-63
2022/09/05 07:23:49;;;;;;;0.00;0.00;;;;;;;16.30;72.23;100514.63;7363806;19;20850;-62
2022/09/05 07:26:18;;;;;;;0.00;0.00;;;;;;;16.33;73.43;100517.13;7366904;19;20526;-61
2022/09/05 07:28:49;;;;;;;0.00;0.00;;;;;;;16.28;72.81;100495.41;7364596;19;21108;-62
2022/09/05 07:31:21;;;;;;;0.00;0.00;;;;;;;16.33;73.81;100496.03;7360740;19;20014;-63
2022/09/05 07:33:48;;;;;;;0.00;0.00;;;;;;;16.51;73.14;100514.50;7361677;19;20871;-62
2022/09/05 07:36:31;;;;;;;0.00;0.00;;;;;;;16.59;72.06;100513.19;7362505;19;20390;-62
2022/09/05 07:39:00;;;;;;;0.00;0.00;;;;;;;16.62;72.33;100506.88;7365988;19;20011;-63
2022/09/05 07:41:30;;;;;;;0.00;0.00;;;;;;;16.66;72.03;100513.72;7364502;19;20484;-62
2022/09/05 07:44:16;;;;;;;0.00;0.00;;;;;;;16.80;71.66;100515.69;7359453;19;20015;-63
2022/09/05 07:46:48;;;;;;;0.00;0.00;;;;;;;16.79;72.32;100504.28;7359853;19;20018;-62
2022/09/05 07:49:17;;;;;;;0.00;0.00;;;;;;;16.89;71.18;100511.72;7363880;19;20022;-62
2022/09/05 07:51:54;;;;;;;0.00;0.00;;;;;;;16.98;71.25;100508.59;7362060;19;20003;-62
2022/09/05 07:54:34;;;;;;;0.10;0.10;;;;;;;17.03;71.18;100509.19;7359863;19;20003;-62
2022/09/05 07:57:03;;;;;;;0.00;0.00;;;;;;;17.08;70.93;100517.72;7359420;19;20010;-62
2022/09/05 07:59:33;;;;;;;0.00;0.00;;;;;;;17.16;70.76;100517.34;7348424;19;20015;-62
2022/09/05 08:02:00;;;;;;;0.00;0.00;;;;;;;17.22;69.94;100523.13;7356014;19;20022;-61
2022/09/05 08:04:28;;;;;;;0.00;0.00;;;;;;;17.26;69.57;100527.31;7359310;19;20014;-61
2022/09/05 08:06:57;;;;;;;0.00;0.00;;;;;;;17.34;70.31;100548.91;7363512;19;20698;-62
2022/09/05 08:09:36;;;;;;;0.00;0.00;;;;;;;17.12;70.11;100495.53;7363009;19;20014;-63
2022/09/05 08:12:11;;;;;;;0.05;0.05;;;;;;;17.47;69.87;100542.94;7364965;19;20011;-62
2022/09/05 08:15:07;;;;;;;0.00;0.00;;;;;;;17.58;70.40;100545.84;7359554;19;20679;-62
2022/09/05 08:18:08;;;;;;;0.00;0.00;;;;;;;17.69;70.07;100550.53;7258761;19;2004370;-62
2022/09/05 08:20:46;;;;;;;0.00;0.00;;;;;;;17.77;69.94;100551.03;7258703;19;2004346;-63
2022/09/05 08:23:40;;;;;;;0.00;0.00;;;;;;;17.85;69.67;100554.09;7354173;19;20019;-61
2022/09/05 08:26:11;;;;;;;0.00;0.00;;;;;;;17.81;69.98;100542.84;7255970;19;2004199;-62
2022/09/05 08:28:45;;;;;;;0.00;0.00;;;;;;;17.89;70.74;100551.22;7362677;19;20040;-61
2022/09/05 08:31:19;;;;;;;0.00;0.00;;;;;;;18.02;69.62;100561.94;7361667;19;20007;-62
2022/09/05 08:33:48;;;;;;;0.00;0.00;;;;;;;18.14;69.66;100549.81;7361952;19;20014;-62
2022/09/05 08:36:13;;;;;;;0.00;0.00;;;;;;;18.31;68.80;100549.72;7359425;19;20018;-63
2022/09/05 08:38:42;;;;;;;0.00;0.00;;;;;;;18.52;68.08;100558.22;7357908;19;20707;-62
2022/09/05 08:41:13;;;;;;;0.00;0.00;;;;;;;18.76;67.53;100550.69;7358903;19;20589;-62
2022/09/05 08:43:50;;;;;;;0.00;0.00;;;;;;;19.02;66.41;100542.97;7357996;19;20010;-61
2022/09/05 08:46:22;;;;;;;0.10;0.10;;;;;;;19.24;67.04;100553.94;7363239;19;20027;-62
2022/09/05 08:49:12;;;;;;;0.00;0.00;;;;;;;19.53;66.99;100546.00;7360829;19;20734;-62
2022/09/05 08:51:40;;;;;;;0.00;0.00;;;;;;;19.67;64.19;100540.75;7360926;19;20025;-62
2022/09/05 08:54:23;;;;;;;0.00;0.00;;;;;;;19.95;65.58;100540.66;7360715;19;20010;-63
2022/09/05 08:56:56;;;;;;;0.00;0.00;;;;;;;20.16;64.60;100532.28;7357014;19;20750;-63
2022/09/05 08:59:39;;;;;;;0.00;0.00;;;;;;;20.49;64.16;100544.31;7355919;19;20407;-62
2022/09/05 09:02:24;;;;;;;0.00;0.00;;;;;;;20.72;64.39;100527.69;7356965;19;20925;-63
2022/09/05 09:05:06;;;;;;;0.10;0.10;;;;;;;20.92;63.17;100521.88;7358133;19;20014;-63
2022/09/05 09:07:52;;;;;;;0.00;0.00;;;;;;;21.19;63.35;100520.94;7357247;19;20044;-62
2022/09/05 09:10:36;;;;;;;0.00;0.00;;;;;;;21.37;60.50;100532.09;7352639;19;20046;-62
2022/09/05 09:13:02;;;;;;;0.10;0.10;;;;;;;21.53;60.14;100526.53;7361325;19;20002;-63
2022/09/05 09:15:36;;;;;;;0.00;0.00;;;;;;;21.50;59.92;100539.09;7360750;19;20009;-63
2022/09/05 09:18:15;;;;;;;0.00;0.00;;;;;;;21.50;60.56;100544.41;7362407;19;20027;-62
2022/09/05 09:21:02;;;;;;;0.08;0.08;;;;;;;21.45;61.98;100535.06;7355628;19;20488;-61
2022/09/05 09:24:12;;;;;;;0.05;0.05;;;;;;;21.53;63.26;100530.03;7362165;19;20007;-62
2022/09/05 09:26:50;;;;;;;0.00;0.00;;;;;;;21.72;62.11;100522.44;7255199;19;2004347;-63
2022/09/05 09:29:16;;;;;;;0.00;0.00;;;;;;;21.97;60.24;100526.84;7357529;19;20014;-63
2022/09/05 09:32:18;;;;;;;0.00;0.00;;;;;;;22.46;62.29;100535.72;7359469;19;20027;-61
2022/09/05 09:35:22;;;;;;;0.10;0.10;;;;;;;22.82;61.07;100533.88;7255923;19;2004543;-62
2022/09/05 09:38:39;;;;;;;0.00;0.00;;;;;;;23.16;60.19;100516.16;7255595;19;2004478;-62
2022/09/05 09:41:31;;;;;;;0.00;0.00;;;;;;;23.42;60.10;100522.09;7254641;19;2004363;-63
2022/09/05 09:43:59;;;;;;;0.00;0.00;;;;;;;23.61;58.49;100521.47;7359547;19;20010;-63
2022/09/05 09:46:36;;;;;;;0.05;0.05;;;;;;;23.78;57.17;100523.69;7359494;19;20018;-63
2022/09/05 09:49:10;;;;;;;0.00;0.00;;;;;;;23.85;56.42;100516.88;7357821;19;20054;-63
2022/09/05 09:51:45;;;;;;;0.00;0.00;;;;;;;24.11;56.31;100497.88;7351069;19;20006;-63
2022/09/05 09:54:41;;;;;;;0.08;0.08;;;;;;;24.45;58.49;100512.81;7353522;19;20471;-63
2022/09/05 09:57:24;;;;;;;0.10;0.10;;;;;;;24.69;56.91;100488.56;7251157;19;2004353;-62
2022/09/05 10:00:20;;;;;;;0.00;0.00;;;;;;;24.91;56.25;100486.69;7361314;19;20047;-63
2022/09/05 10:03:10;;;;;;;0.00;0.00;;;;;;;25.22;54.41;100487.59;7259066;19;2004334;-63
2022/09/05 10:06:13;;;;;;;0.00;0.00;;;;;;;25.36;54.45;100489.91;7263073;19;2004635;-62
2022/09/05 10:08:57;;;;;;;0.00;0.00;;;;;;;25.62;53.15;100499.13;7264298;19;2004449;-63
2022/09/05 10:11:59;;;;;;;0.00;0.00;;;;;;;25.65;52.57;100498.03;7366821;19;20016;-62
2022/09/05 10:14:46;;;;;;;0.00;0.00;;;;;;;25.83;51.67;100491.03;7262804;19;2004518;-64
2022/09/05 10:17:42;;;;;;;0.08;0.08;;;;;;;25.90;52.02;100479.78;7367798;19;20664;-63
2022/09/05 10:20:26;;;;;;;0.00;0.00;;;;;;;25.81;49.35;100485.00;7263668;19;2004417;-63
2022/09/05 10:23:13;;;;;;;0.00;0.00;;;;;;;26.02;51.11;100463.47;7365731;19;20017;-62
2022/09/05 10:25:38;;;;;;;0.10;0.10;;;;;;;25.98;48.40;100472.75;7366218;19;20014;-63
2022/09/05 10:28:15;;;;;;;0.10;0.10;;;;;;;26.13;49.60;100475.84;7366695;19;20014;-63
2022/09/05 10:31:17;;;;;;;0.10;0.10;;;;;;;26.08;50.32;100465.56;7365965;19;20050;-63
2022/09/05 10:34:02;;;;;;;0.10;0.10;;;;;;;26.09;49.39;100469.09;7256766;19;2004679;-63
2022/09/05 10:36:30;;;;;;;0.08;0.08;;;;;;;26.03;47.87;100459.78;7360072;19;20015;-62
2022/09/05 10:39:19;;;;;;;0.00;0.00;;;;;;;26.16;49.19;100477.41;7363908;19;20642;-63
2022/09/05 10:41:49;;;;;;;0.00;0.00;;;;;;;26.05;48.75;100470.34;7365998;19;20044;-63
2022/09/05 10:44:25;;;;;;;0.10;0.10;;;;;;;26.03;48.79;100475.84;7363798;19;20003;-63
2022/09/05 10:47:15;;;;;;;0.10;0.10;;;;;;;26.09;49.23;100474.44;7362230;19;20006;-63
2022/09/05 10:49:44;;;;;;;0.00;0.00;;;;;;;26.09;47.06;100475.28;7358743;19;20473;-63
2022/09/05 10:52:36;;;;;;;0.00;0.00;;;;;;;26.25;48.92;100481.91;7361869;19;20039;-63
2022/09/05 10:55:07;;;;;;;0.03;0.03;;;;;;;26.26;46.48;100472.91;7363289;19;20049;-63
2022/09/05 10:57:52;;;;;;;0.03;0.03;;;;;;;26.34;46.91;100465.00;7362959;19;20495;-62
2022/09/05 11:00:50;;;;;;;0.00;0.00;;;;;;;26.33;47.63;100460.63;7357551;19;20030;-63
2022/09/05 11:03:23;;;;;;;0.10;0.10;;;;;;;26.28;45.90;100462.91;7259379;19;2004258;-63
2022/09/05 11:05:57;;;;;;;0.10;0.10;;;;;;;26.27;46.00;100462.06;7363118;19;20017;-62
2022/09/05 11:08:25;;;;;;;0.00;0.00;;;;;;;26.26;46.28;100478.25;7366427;19;20101;-63
2022/09/05 11:11:00;;;;;;;0.08;0.08;;;;;;;26.30;46.58;100459.06;7364474;19;20014;-62
2022/09/05 11:13:28;;;;;;;0.10;0.10;;;;;;;26.30;45.46;100466.25;7363390;19;20604;-63
2022/09/05 11:16:21;;;;;;;0.10;0.10;;;;;;;26.44;46.77;100463.19;7365604;19;20018;-63
2022/09/05 11:19:26;;;;;;;0.00;0.00;;;;;;;26.65;46.87;100466.53;7263294;19;2004466;-63
2022/09/05 11:22:04;;;;;;;0.00;0.00;;;;;;;26.87;46.24;100459.16;7263929;19;2004384;-63
2022/09/05 11:24:51;;;;;;;0.05;0.05;;;;;;;27.01;45.73;100458.66;7365240;19;20022;-63
2022/09/05 11:27:35;;;;;;;;;;;;;;;27.28;46.17;100452.53;7366129;19;20007;-63
2022/09/05 11:30:06;;;;;;;0.10;0.10;;;;;;;27.28;44.57;100431.09;7364655;19;20698;-63
2022/09/05 11:33:06;;;;;;;0.08;0.08;;;;;;;27.70;44.81;100452.00;7364831;19;20022;-63
2022/09/05 11:35:41;;;;;;;0.00;0.00;;;;;;;27.91;42.69;100443.69;7260758;19;2004270;-63
2022/09/05 11:38:09;;;;;;;0.10;0.10;;;;;;;28.07;43.12;100454.56;7363992;19;20032;-63
2022/09/05 11:40:53;;;;;;;0.10;0.10;;;;;;;28.22;42.92;100462.09;7360715;19;20010;-63
2022/09/05 11:43:44;;;;;;;0.00;0.00;;;;;;;28.32;42.00;100454.78;7364960;19;20458;-62
2022/09/05 11:46:23;;;;;;;0.00;0.00;;;;;;;28.31;41.96;100450.41;7346696;19;20569;-63
2022/09/05 11:49:28;;;;;;;0.00;0.00;;;;;;;28.39;41.74;100454.06;7352324;19;20727;-63
2022/09/05 11:52:07;;;;;;;0.05;0.05;;;;;;;28.30;40.78;100448.75;7249714;19;2004514;-63
2022/09/05 11:54:33;;;;;;;0.10;0.10;;;;;;;28.31;41.85;100451.25;7353053;19;20034;-63
2022/09/05 11:57:13;;;;;;;0.10;0.10;;;;;;;28.41;40.73;100433.25;7351451;19;20014;-63
2022/09/05 11:59:59;;;;;;;0.00;0.00;;;;;;;28.41;40.11;100430.56;7351772;19;20014;-62
2022/09/05 12:03:00;;;;;;;0.10;0.10;;;;;;;28.63;41.14;100445.31;7351437;19;20010;-63
2022/09/05 12:05:31;;;;;;;0.00;0.00;;;;;;;28.65;40.64;100429.88;7247814;19;2004438;-63
2022/09/05 12:08:19;;;;;;;0.10;0.10;;;;;;;28.74;40.34;100440.66;7348145;19;20574;-63
2022/09/05 12:11:12;;;;;;;0.00;0.00;;;;;;;28.81;40.53;100420.25;7350715;19;20815;-62
2022/09/05 12:13:53;;;;;;;0.10;0.10;;;;;;;28.79;40.08;100424.91;7246236;19;2004446;-63
2022/09/05 12:16:38;;;;;;;0.10;0.10;;;;;;;28.74;39.33;100446.03;7351449;19;20007;-63
2022/09/05 12:19:25;;;;;;;0.00;0.00;;;;;;;28.84;40.47;100415.41;7348175;19;20006;-62
2022/09/05 12:22:12;;;;;;;0.00;0.00;;;;;;;28.97;39.87;100443.69;7349236;19;20082;-63
2022/09/05 12:25:15;;;;;;;0.10;0.10;;;;;;;29.06;40.44;100434.69;7347510;19;20480;-63
2022/09/05 12:27:47;;;;;;;0.00;0.00;;;;;;;29.04;40.02;100437.50;7250050;19;2004416;-63
2022/09/05 12:30:21;;;;;;;0.08;0.08;;;;;;;29.20;40.31;100440.28;7350064;19;20027;-62
2022/09/05 12:32:50;;;;;;;0.03;0.03;;;;;;;29.27;39.31;100431.56;7350021;19;20014;-63
2022/09/05 12:35:24;;;;;;;0.00;0.00;;;;;;;29.41;38.79;100434.47;7350645;19;20044;-63